Guenther Schulte — VRGK8 — position and weather

sailwx.info

Track history (hours):
 
Tides and Currents Weather Stations Pressure Air Temp Water Temp Dewpoint Dewpoint Depression Visibility Wind Speed Wind Dir Waves Ship Positions

Guenther Schulte

Last reported at 2017-May-14 09:58 UTC. Time now 2017-May-28 16:26 UTC.
Position S 37°26' E 176°12'.
Warning: this ship's position is 14 days out of date.

Length 231 m; draft 11.3 m.

Type: Ship (hazmat cat C). MMSI: 477728800.

Date/timePositionNaut miles runAvg speedWind from/ knotsBaromVisibWave heightAir tempDewpointWater temp
2017-May-14 09:58S 37°26' E 176°12'613.5
2017-May-14 09:30S 37°32' E 176°11'611.9
2017-May-14 09:00S 37°38' E 176°10'2 3.9
2017-May-14 08:29S 37°40' E 176°11'0 0.0
2017-May-14 07:59S 37°40' E 176°11'0 0.0
2017-May-14 07:31S 37°40' E 176°11'0 0.0
2017-May-14 07:01S 37°40' E 176°11'0 0.0
2017-May-14 06:30S 37°40' E 176°11'0 0.0
2017-May-14 05:59S 37°40' E 176°11'0 0.0
2017-May-14 05:29S 37°40' E 176°11'0 0.0
2017-May-14 04:59S 37°40' E 176°11'0 0.0
2017-May-14 04:29S 37°40' E 176°11'0 0.0
2017-May-14 03:59S 37°40' E 176°11'0 0.0
2017-May-14 03:31S 37°40' E 176°11'0 0.0
2017-May-14 03:01S 37°40' E 176°11'0 0.0
2017-May-14 02:30S 37°40' E 176°11'0 0.0
2017-May-14 02:00S 37°40' E 176°11'0 0.0
2017-May-14 01:30S 37°40' E 176°11'0 0.0
2017-May-14 01:00S 37°40' E 176°11'0 0.0
2017-May-14 00:30S 37°40' E 176°11'0 0.0
2017-May-14 00:00S 37°40' E 176°11'0 0.0
2017-May-13 23:30S 37°40' E 176°11'0 0.0
2017-May-13 23:00S 37°40' E 176°11'0 0.0
2017-May-13 22:30S 37°40' E 176°11'0 0.0
2017-May-13 22:00S 37°40' E 176°11'0 0.0
2017-May-13 21:30S 37°40' E 176°11'0 0.0
2017-May-13 21:00S 37°40' E 176°11'0 0.0
2017-May-13 20:31S 37°40' E 176°11'0 0.0
2017-May-13 20:01S 37°40' E 176°11'0 0.0
2017-May-13 19:30S 37°40' E 176°11'0 0.0
2017-May-13 19:00S 37°40' E 176°11'0 0.0
2017-May-13 18:30S 37°40' E 176°11'0 0.0
2017-May-13 17:59S 37°40' E 176°11'0 0.0
2017-May-13 17:29S 37°40' E 176°11'0 0.0
2017-May-13 16:59S 37°40' E 176°11'0 0.0
2017-May-13 16:29S 37°40' E 176°11'0 0.0
2017-May-13 15:58S 37°40' E 176°11'0 0.0
2017-May-13 15:31S 37°40' E 176°11'0 0.0
2017-May-13 15:00S 37°40' E 176°11'0 0.0
2017-May-13 14:31S 37°40' E 176°11'0 0.0
2017-May-13 13:31S 37°40' E 176°11'0 0.0
2017-May-13 13:00S 37°40' E 176°11'0 0.0
2017-May-13 12:26S 37°40' E 176°11'0 0.0
2017-May-13 11:56S 37°40' E 176°11'0 0.0
2017-May-13 11:29S 37°40' E 176°11'0 0.0
2017-May-13 11:01S 37°40' E 176°11'0 0.0
2017-May-13 10:30S 37°40' E 176°11'0 0.0
2017-May-13 09:44S 37°40' E 176°11'0 1.8
2017-May-13 09:31S 37°39' E 176°11'11413.0
2017-May-13 00:48S 35°51' E 175°28'  
2017-May-08 00:35S 37°58' E 149°19'115.7
2017-May-08 00:30S 37°58' E 149°18'816.2
2017-May-08 00:00S 38°01' E 149°08'815.9
2017-May-07 23:30S 38°08' E 149°02'816.2
2017-May-07 23:00S 38°14' E 148°56'816.2
2017-May-07 22:29S 38°20' E 148°49'815.6
2017-May-07 21:59S 38°27' E 148°43'18110.7
2017-May-07 05:07S 38°02' E 144°55'317.7
2017-May-07 04:57S 37°59' E 144°55'714.4
2017-May-07 04:28S 37°52' E 144°55'3 0.1
2017-May-06 03:20S 37°49' E 144°55'1 2.7
2017-May-06 02:55S 37°50' E 144°54'5 8.9
2017-May-06 02:23S 37°54' E 144°56'4 9.6
2017-May-06 01:57S 37°58' E 144°55'8 8.6
2017-May-06 00:59S 38°07' E 144°55'50 4.5
2017-May-05 13:43S 38°51' E 145°26'311.4
2017-May-05 13:29S 38°52' E 145°29'1711.4
2017-May-05 11:58S 38°59' E 145°49'811.2
2017-May-05 11:14S 39°03' E 145°58'411.1
2017-May-05 10:50S 39°06' E 146°03'1610.3
2017-May-05 09:15S 39°11' E 146°23'310.7
2017-May-05 09:00S 39°10' E 146°27'1211.0
2017-May-05 07:51S 39°06' E 146°42'511.4
2017-May-05 07:25S 39°04' E 146°48'611.3
2017-May-05 06:56S 39°03' E 146°55'1811.3
2017-May-05 05:20S 38°57' E 147°17'412.0
2017-May-05 04:59S 38°56' E 147°22'817.0
2017-May-05 04:30S 38°53' E 147°32'817.3
2017-May-05 04:00S 38°51' E 147°43'816.7
2017-May-05 03:30S 38°48' E 147°53'816.7
2017-May-05 03:00S 38°46' E 148°03'816.3
2017-May-05 02:30S 38°43' E 148°13'815.6
2017-May-05 02:00S 38°40' E 148°22'816.3
2017-May-05 01:30S 38°39' E 148°32'816.5
2017-May-05 01:00S 38°37' E 148°43'  
Track history (hours):
 
Tides and Currents Weather Stations Pressure Air Temp Water Temp Dewpoint Dewpoint Depression Visibility Wind Speed Wind Dir Waves Ship Positions

Guenther Schulte

Last reported at 2017-May-14 09:58 UTC. Time now 2017-May-28 16:26 UTC.
Position S 37°26' E 176°12'.
Warning: this ship's position is 14 days out of date.

Length 231 m; draft 11.3 m.

Type: Ship (hazmat cat C). MMSI: 477728800.

Date/timePositionNaut miles runAvg speedWind from/ knotsBaromVisibWave heightAir tempDewpointWater temp
2017-May-14 09:58S 37°26' E 176°12'613.5
2017-May-14 09:30S 37°32' E 176°11'611.9
2017-May-14 09:00S 37°38' E 176°10'2 3.9
2017-May-14 08:29S 37°40' E 176°11'0 0.0
2017-May-14 07:59S 37°40' E 176°11'0 0.0
2017-May-14 07:31S 37°40' E 176°11'0 0.0
2017-May-14 07:01S 37°40' E 176°11'0 0.0
2017-May-14 06:30S 37°40' E 176°11'0 0.0
2017-May-14 05:59S 37°40' E 176°11'0 0.0
2017-May-14 05:29S 37°40' E 176°11'0 0.0
2017-May-14 04:59S 37°40' E 176°11'0 0.0
2017-May-14 04:29S 37°40' E 176°11'0 0.0
2017-May-14 03:59S 37°40' E 176°11'0 0.0
2017-May-14 03:31S 37°40' E 176°11'0 0.0
2017-May-14 03:01S 37°40' E 176°11'0 0.0
2017-May-14 02:30S 37°40' E 176°11'0 0.0
2017-May-14 02:00S 37°40' E 176°11'0 0.0
2017-May-14 01:30S 37°40' E 176°11'0 0.0
2017-May-14 01:00S 37°40' E 176°11'0 0.0
2017-May-14 00:30S 37°40' E 176°11'0 0.0
2017-May-14 00:00S 37°40' E 176°11'0 0.0
2017-May-13 23:30S 37°40' E 176°11'0 0.0
2017-May-13 23:00S 37°40' E 176°11'0 0.0
2017-May-13 22:30S 37°40' E 176°11'0 0.0
2017-May-13 22:00S 37°40' E 176°11'0 0.0
2017-May-13 21:30S 37°40' E 176°11'0 0.0
2017-May-13 21:00S 37°40' E 176°11'0 0.0
2017-May-13 20:31S 37°40' E 176°11'0 0.0
2017-May-13 20:01S 37°40' E 176°11'0 0.0
2017-May-13 19:30S 37°40' E 176°11'0 0.0
2017-May-13 19:00S 37°40' E 176°11'0 0.0
2017-May-13 18:30S 37°40' E 176°11'0 0.0
2017-May-13 17:59S 37°40' E 176°11'0 0.0
2017-May-13 17:29S 37°40' E 176°11'0 0.0
2017-May-13 16:59S 37°40' E 176°11'0 0.0
2017-May-13 16:29S 37°40' E 176°11'0 0.0
2017-May-13 15:58S 37°40' E 176°11'0 0.0
2017-May-13 15:31S 37°40' E 176°11'0 0.0
2017-May-13 15:00S 37°40' E 176°11'0 0.0
2017-May-13 14:31S 37°40' E 176°11'0 0.0
2017-May-13 13:31S 37°40' E 176°11'0 0.0
2017-May-13 13:00S 37°40' E 176°11'0 0.0
2017-May-13 12:26S 37°40' E 176°11'0 0.0
2017-May-13 11:56S 37°40' E 176°11'0 0.0
2017-May-13 11:29S 37°40' E 176°11'0 0.0
2017-May-13 11:01S 37°40' E 176°11'0 0.0
2017-May-13 10:30S 37°40' E 176°11'0 0.0
2017-May-13 09:44S 37°40' E 176°11'0 1.8
2017-May-13 09:31S 37°39' E 176°11'11413.0
2017-May-13 00:48S 35°51' E 175°28'  
2017-May-08 00:35S 37°58' E 149°19'115.7
2017-May-08 00:30S 37°58' E 149°18'816.2
2017-May-08 00:00S 38°01' E 149°08'815.9
2017-May-07 23:30S 38°08' E 149°02'816.2
2017-May-07 23:00S 38°14' E 148°56'816.2
2017-May-07 22:29S 38°20' E 148°49'815.6
2017-May-07 21:59S 38°27' E 148°43'18110.7
2017-May-07 05:07S 38°02' E 144°55'317.7
2017-May-07 04:57S 37°59' E 144°55'714.4
2017-May-07 04:28S 37°52' E 144°55'3 0.1
2017-May-06 03:20S 37°49' E 144°55'1 2.7
2017-May-06 02:55S 37°50' E 144°54'5 8.9
2017-May-06 02:23S 37°54' E 144°56'4 9.6
2017-May-06 01:57S 37°58' E 144°55'8 8.6
2017-May-06 00:59S 38°07' E 144°55'50 4.5
2017-May-05 13:43S 38°51' E 145°26'311.4
2017-May-05 13:29S 38°52' E 145°29'1711.4
2017-May-05 11:58S 38°59' E 145°49'811.2
2017-May-05 11:14S 39°03' E 145°58'411.1
2017-May-05 10:50S 39°06' E 146°03'1610.3
2017-May-05 09:15S 39°11' E 146°23'310.7
2017-May-05 09:00S 39°10' E 146°27'1211.0
2017-May-05 07:51S 39°06' E 146°42'511.4
2017-May-05 07:25S 39°04' E 146°48'611.3
2017-May-05 06:56S 39°03' E 146°55'1811.3
2017-May-05 05:20S 38°57' E 147°17'412.0
2017-May-05 04:59S 38°56' E 147°22'817.0
2017-May-05 04:30S 38°53' E 147°32'817.3
2017-May-05 04:00S 38°51' E 147°43'816.7
2017-May-05 03:30S 38°48' E 147°53'816.7
2017-May-05 03:00S 38°46' E 148°03'816.3
2017-May-05 02:30S 38°43' E 148°13'815.6
2017-May-05 02:00S 38°40' E 148°22'816.3
2017-May-05 01:30S 38°39' E 148°32'816.5
2017-May-05 01:00S 38°37' E 148°43'  

Dump ship's entire track history